createdAt,value
2018-02-09T11:44:03.858Z,56.90
2018-02-09T11:46:31.324Z,56.20
2018-02-09T11:48:58.801Z,55.70
2018-02-09T11:51:26.272Z,53.80
2018-02-09T11:53:53.775Z,53.20
2018-02-09T11:56:21.244Z,51.50
2018-02-09T11:58:49.541Z,54.20
2018-02-09T12:01:17.152Z,54.10
2018-02-09T12:03:45.381Z,52.30
2018-02-09T12:06:12.879Z,52.20
2018-02-09T12:08:41.140Z,53.20
2018-02-09T12:11:08.610Z,53.10
2018-02-09T12:13:36.156Z,53.40
2018-02-09T12:16:03.684Z,54.50
2018-02-09T12:18:31.206Z,54.70
2018-02-09T12:20:58.681Z,53.90
2018-02-09T12:23:26.382Z,53.50
2018-02-09T12:25:54.121Z,54.20
2018-02-09T12:28:21.600Z,54.00
2018-02-09T12:30:49.083Z,54.30
2018-02-09T12:33:16.715Z,54.70
2018-02-09T12:35:45.000Z,54.00
2018-02-09T12:38:12.489Z,54.00
2018-02-09T12:40:40.811Z,55.90
2018-02-09T12:43:08.291Z,57.10
2018-02-09T12:45:35.799Z,56.60
2018-02-09T12:48:03.411Z,57.30
2018-02-09T12:50:30.902Z,56.80
2018-02-09T12:52:58.509Z,56.70
2018-02-09T12:55:26.196Z,56.20
2018-02-09T12:57:54.586Z,57.00
2018-02-09T13:00:22.121Z,56.90
2018-02-09T13:02:49.602Z,57.10
2018-02-09T13:05:18.022Z,56.10
2018-02-09T13:07:45.552Z,56.10
2018-02-09T13:10:13.052Z,53.60
2018-02-09T13:12:52.334Z,51.80
2018-02-09T13:15:19.819Z,48.50
2018-02-09T13:17:47.341Z,48.90
2018-02-09T13:20:15.587Z,44.40
2018-02-09T13:22:54.881Z,44.20
2018-02-09T13:25:22.339Z,41.70
2018-02-09T13:27:49.852Z,42.80
2018-02-09T13:30:17.322Z,40.30
2018-02-09T13:32:57.471Z,37.80
2018-02-09T13:35:25.943Z,37.00
2018-02-09T13:37:53.618Z,37.00
2018-02-09T13:40:21.924Z,35.30
2018-02-09T13:42:49.478Z,35.20
2018-02-09T13:45:17.078Z,35.70
2018-02-09T13:47:44.535Z,36.90
2018-02-09T13:50:12.032Z,39.10
2018-02-09T13:52:40.260Z,45.70
2018-02-09T13:55:07.732Z,45.70
2018-02-09T13:57:35.195Z,44.30
2018-02-09T14:00:02.679Z,41.40
2018-02-09T14:02:30.913Z,39.20
2018-02-09T14:04:59.141Z,40.30
2018-02-09T14:07:26.644Z,39.70
2018-02-09T14:09:54.328Z,39.00
2018-02-09T14:12:22.046Z,43.20
2018-02-09T14:14:49.572Z,44.60
2018-02-09T14:17:17.041Z,45.40
2018-02-09T14:19:44.510Z,47.00
2018-02-09T14:22:12.022Z,48.00
2018-02-09T14:24:40.260Z,50.40
2018-02-09T14:27:07.752Z,50.40
2018-02-09T14:29:35.235Z,50.60
2018-02-09T14:32:02.712Z,49.40
2018-02-09T14:34:30.192Z,50.00
2018-02-09T14:36:57.668Z,50.30
2018-02-09T14:39:25.928Z,51.90
2018-02-09T14:41:53.385Z,51.90
2018-02-09T14:44:21.140Z,51.40
2018-02-09T14:46:48.615Z,52.40
2018-02-09T14:49:16.093Z,53.00
2018-02-09T14:51:44.351Z,55.10
2018-02-09T14:54:11.875Z,55.10
2018-02-09T14:56:39.357Z,56.60
2018-02-09T14:59:06.949Z,57.20
2018-02-09T15:01:34.492Z,57.60
2018-02-09T15:04:02.769Z,59.00
2018-02-09T15:06:30.284Z,58.80
2018-02-09T15:08:57.777Z,59.00
2018-02-09T15:11:25.288Z,58.90
2018-02-09T15:13:53.506Z,59.30
2018-02-09T15:16:20.991Z,59.20
2018-02-09T15:18:49.302Z,59.20
2018-02-09T15:21:16.903Z,59.20
2018-02-09T15:23:44.368Z,59.30
2018-02-09T15:26:11.823Z,59.20
2018-02-09T15:28:40.113Z,59.60
2018-02-09T15:31:10.574Z,59.90
2018-02-09T15:33:38.167Z,60.10
2018-02-09T15:36:05.666Z,60.60
2018-02-09T15:38:33.904Z,61.60
2018-02-09T15:41:01.395Z,61.50
2018-02-09T15:43:29.644Z,61.90
2018-02-09T15:45:57.117Z,61.90
2018-02-09T15:48:25.366Z,61.90
2018-02-09T15:50:52.921Z,61.90
2018-02-09T15:53:21.237Z,62.30
2018-02-09T15:55:48.731Z,62.40
2018-02-09T15:58:16.203Z,62.60
2018-02-09T16:00:43.758Z,62.00
2018-02-09T16:03:11.370Z,62.70
2018-02-09T16:05:38.925Z,62.70
2018-02-09T16:08:06.475Z,62.90
2018-02-09T16:10:34.713Z,62.70
2018-02-09T16:13:02.203Z,62.70
2018-02-09T16:15:30.436Z,63.80
2018-02-09T16:17:57.924Z,63.50
2018-02-09T16:20:25.516Z,63.20
2018-02-09T16:22:53.024Z,63.20
2018-02-09T16:25:20.483Z,63.50
2018-02-09T16:27:47.992Z,63.30
2018-02-09T16:30:15.475Z,63.40
2018-02-09T16:32:42.946Z,63.80
2018-02-09T16:35:10.421Z,64.30
2018-02-09T16:37:37.933Z,64.60
2018-02-09T16:40:05.528Z,64.90
2018-02-09T16:42:33.024Z,65.10
2018-02-09T16:45:01.253Z,65.50
2018-02-09T16:47:29.515Z,65.50
2018-02-09T16:49:56.979Z,66.30
2018-02-09T16:52:24.478Z,65.70
2018-02-09T16:54:52.715Z,66.50
2018-02-09T16:57:20.202Z,66.40
2018-02-09T16:59:47.660Z,67.00
2018-02-09T17:02:15.195Z,66.60
2018-02-09T17:04:42.704Z,66.10
2018-02-09T17:07:10.204Z,65.60
2018-02-09T17:09:37.705Z,65.70
2018-02-09T17:12:05.965Z,66.00
2018-02-09T17:14:33.436Z,65.90
2018-02-09T17:17:01.717Z,66.90
2018-02-09T17:19:29.954Z,67.40
2018-02-09T17:21:57.831Z,67.30
2018-02-09T17:24:26.092Z,67.50
2018-02-09T17:26:53.596Z,67.50
2018-02-09T17:29:21.064Z,67.70
2018-02-09T17:31:48.696Z,67.90
2018-02-09T17:34:16.948Z,67.70
2018-02-09T17:36:44.663Z,67.60
2018-02-09T17:39:12.124Z,67.70
2018-02-09T17:41:39.706Z,67.80
2018-02-09T17:44:07.163Z,67.80
2018-02-09T17:46:34.644Z,68.50
2018-02-09T17:49:02.134Z,68.30
2018-02-09T17:51:29.657Z,68.90
2018-02-09T17:53:57.142Z,67.70
2018-02-09T17:56:25.378Z,67.70
2018-02-09T17:58:53.067Z,67.70
2018-02-09T18:01:21.316Z,68.70
2018-02-09T18:03:48.789Z,67.80
2018-02-09T18:06:16.263Z,68.30
2018-02-09T18:08:44.491Z,67.90
2018-02-09T18:11:11.978Z,67.70
2018-02-09T18:13:39.443Z,67.70
2018-02-09T18:16:07.683Z,67.70
2018-02-09T18:18:36.047Z,67.80
2018-02-09T18:21:03.508Z,67.70
2018-02-09T18:23:30.971Z,67.70
2018-02-09T18:25:58.454Z,67.60
2018-02-09T18:28:25.919Z,67.70
2018-02-09T18:30:54.151Z,67.70
2018-02-09T18:33:21.824Z,67.70
2018-02-09T18:35:49.280Z,67.70
2018-02-09T18:38:16.747Z,67.70
2018-02-09T18:40:44.933Z,67.70
2018-02-09T18:43:12.395Z,67.40
2018-02-09T18:45:39.855Z,67.70
2018-02-09T18:48:08.099Z,67.20
2018-02-09T18:50:35.612Z,67.20
2018-02-09T18:53:03.827Z,67.30
2018-02-09T18:55:31.291Z,67.30
2018-02-09T18:57:58.784Z,67.30
2018-02-09T19:00:26.253Z,67.30
2018-02-09T19:02:53.712Z,67.90
2018-02-09T19:05:21.205Z,67.80
2018-02-09T19:07:48.672Z,67.90
2018-02-09T19:10:16.172Z,67.90
2018-02-09T19:12:44.540Z,68.40
2018-02-09T19:15:12.771Z,68.40
2018-02-09T19:17:40.246Z,68.30
2018-02-09T19:20:07.762Z,68.20
2018-02-09T19:22:35.303Z,68.60
2018-02-09T19:25:02.857Z,69.00
2018-02-09T19:27:30.397Z,69.00
2018-02-09T19:29:57.858Z,68.90
2018-02-09T19:32:26.150Z,69.20
2018-02-09T19:34:54.464Z,69.50
2018-02-09T19:37:21.940Z,69.40
2018-02-09T19:39:49.406Z,69.60
2018-02-09T19:42:16.881Z,69.60
2018-02-09T19:44:44.388Z,69.60
2018-02-09T19:47:12.183Z,70.00
2018-02-09T19:49:39.653Z,70.10
2018-02-09T19:52:07.160Z,70.00
2018-02-09T19:54:34.620Z,70.30
2018-02-09T19:57:02.094Z,70.30
2018-02-09T19:59:29.596Z,70.20
2018-02-09T20:01:57.827Z,70.30
2018-02-09T20:04:25.456Z,70.30
2018-02-09T20:06:52.957Z,70.50
2018-02-09T20:09:20.475Z,70.70
2018-02-09T20:11:48.009Z,70.40
2018-02-09T20:14:15.495Z,70.30
2018-02-09T20:16:43.030Z,70.30
2018-02-09T20:19:10.588Z,70.40
2018-02-09T20:21:38.823Z,70.50
2018-02-09T20:24:06.312Z,70.50
2018-02-09T20:26:33.807Z,70.80
2018-02-09T20:29:01.280Z,70.80
2018-02-09T20:31:28.799Z,70.80
2018-02-09T20:33:56.279Z,71.10
2018-02-09T20:36:23.749Z,71.10
2018-02-09T20:38:51.215Z,71.00
2018-02-09T20:41:18.693Z,71.20
2018-02-09T20:43:46.183Z,71.30
2018-02-09T20:46:13.725Z,71.40
2018-02-09T20:48:41.954Z,71.80
2018-02-09T20:51:09.483Z,71.70
2018-02-09T20:53:36.935Z,71.90
2018-02-09T20:56:04.436Z,71.70
2018-02-09T20:58:31.907Z,71.70
2018-02-09T21:00:59.376Z,71.70
2018-02-09T21:03:27.617Z,71.60
2018-02-09T21:05:55.126Z,71.50
2018-02-09T21:08:22.620Z,71.70
2018-02-09T21:10:50.103Z,71.50
2018-02-09T21:13:17.582Z,71.50
2018-02-09T21:15:45.839Z,71.30
2018-02-09T21:18:13.325Z,71.20
2018-02-09T21:20:41.551Z,70.90
2018-02-09T21:23:09.082Z,70.90
2018-02-09T21:25:36.572Z,71.20
2018-02-09T21:28:04.048Z,71.20
2018-02-09T21:30:31.511Z,71.20
2018-02-09T21:32:59.091Z,70.70
2018-02-09T21:35:27.395Z,70.60
2018-02-09T21:37:54.855Z,70.60
2018-02-09T21:40:22.340Z,70.90
2018-02-09T21:42:50.371Z,71.10
2018-02-09T21:45:17.786Z,71.00
2018-02-09T21:47:45.238Z,71.20
2018-02-09T21:50:12.736Z,71.20
2018-02-09T21:52:40.219Z,71.90
2018-02-09T21:55:07.680Z,71.20
2018-02-09T21:57:35.178Z,71.00
2018-02-09T22:00:03.401Z,71.00
2018-02-09T22:02:30.972Z,70.90
2018-02-09T22:04:58.482Z,70.90
2018-02-09T22:07:25.971Z,71.00
2018-02-09T22:09:53.439Z,71.00
2018-02-09T22:12:20.975Z,70.90
2018-02-09T22:14:48.460Z,70.70
2018-02-09T22:17:15.968Z,70.80
2018-02-09T22:19:44.215Z,70.90
2018-02-09T22:22:11.711Z,70.90
2018-02-09T22:24:39.203Z,70.80
2018-02-09T22:27:06.680Z,70.70
2018-02-09T22:29:34.175Z,70.80
2018-02-09T22:32:02.403Z,71.00
2018-02-09T22:34:29.887Z,70.90
2018-02-09T22:36:58.128Z,70.60
2018-02-09T22:39:25.801Z,70.50
2018-02-09T22:41:54.184Z,71.00
2018-02-09T22:44:21.713Z,70.90
2018-02-09T22:46:49.249Z,71.80
2018-02-09T22:49:16.759Z,70.60
2018-02-09T22:51:44.271Z,70.60
2018-02-09T22:54:11.861Z,70.60
2018-02-09T22:56:39.373Z,70.60
2018-02-09T22:59:07.606Z,71.00
2018-02-09T23:01:35.101Z,70.80
2018-02-09T23:04:03.353Z,71.10
2018-02-09T23:06:30.836Z,71.00
2018-02-09T23:08:58.335Z,71.10
2018-02-09T23:11:25.835Z,71.00
2018-02-09T23:13:54.072Z,70.80
2018-02-09T23:16:21.540Z,70.80
2018-02-09T23:18:49.017Z,71.00
2018-02-09T23:21:16.605Z,71.00
2018-02-09T23:23:44.068Z,71.10
2018-02-09T23:26:11.526Z,71.30
2018-02-09T23:28:39.006Z,71.40
2018-02-09T23:31:06.475Z,71.50
2018-02-09T23:33:33.935Z,71.30
2018-02-09T23:36:01.435Z,71.30
2018-02-09T23:38:29.663Z,71.60
2018-02-09T23:40:57.907Z,71.50
2018-02-09T23:43:25.403Z,71.70
2018-02-09T23:45:52.864Z,71.70
2018-02-09T23:48:20.321Z,71.90
2018-02-09T23:50:47.831Z,72.10
2018-02-09T23:53:15.299Z,72.00
2018-02-09T23:55:42.771Z,72.60
2018-02-09T23:58:10.232Z,71.60
